createdAt,value
2019-01-09T00:02:55.376Z,58.40
2019-01-09T00:05:51.713Z,58.50
2019-01-09T00:08:47.628Z,58.50
2019-01-09T00:11:44.081Z,58.60
2019-01-09T00:14:43.792Z,58.60
2019-01-09T00:17:40.019Z,58.70
2019-01-09T00:20:38.080Z,59.10
2019-01-09T00:23:33.833Z,58.70
2019-01-09T00:26:29.960Z,58.70
2019-01-09T00:29:44.512Z,58.70
2019-01-09T00:32:41.966Z,58.70
2019-01-09T00:35:38.817Z,58.50
2019-01-09T00:38:35.439Z,58.60
2019-01-09T00:41:32.821Z,58.70
2019-01-09T00:44:31.553Z,58.70
2019-01-09T00:47:27.825Z,58.70
2019-01-09T00:50:27.252Z,58.60
2019-01-09T00:53:24.064Z,58.70
2019-01-09T00:56:22.960Z,58.70
2019-01-09T00:59:17.270Z,58.70
2019-01-09T01:02:58.453Z,58.70
2019-01-09T01:06:53.650Z,58.80
2019-01-09T01:10:32.808Z,58.80
2019-01-09T01:14:04.391Z,58.80
2019-01-09T01:17:44.575Z,58.80
2019-01-09T01:21:07.689Z,58.90
2019-01-09T01:24:43.248Z,58.90
2019-01-09T01:28:02.143Z,59.00
2019-01-09T01:31:23.117Z,59.20
2019-01-09T01:34:37.427Z,59.40
2019-01-09T01:37:53.319Z,59.70
2019-01-09T01:41:39.863Z,59.90
2019-01-09T01:45:10.955Z,60.20
2019-01-09T01:48:32.772Z,60.20
2019-01-09T01:51:56.639Z,60.30
2019-01-09T01:55:26.696Z,60.30
2019-01-09T01:58:59.104Z,60.40
2019-01-09T02:02:39.886Z,60.40
2019-01-09T02:06:19.261Z,60.40
2019-01-09T02:09:52.057Z,60.50
2019-01-09T02:13:11.390Z,60.70
2019-01-09T02:16:26.414Z,60.70
2019-01-09T02:19:53.359Z,60.80
2019-01-09T02:23:31.153Z,60.80
2019-01-09T02:27:28.147Z,60.70
2019-01-09T02:31:14.825Z,60.80
2019-01-09T02:34:11.408Z,60.90
2019-01-09T02:37:08.752Z,61.00
2019-01-09T02:40:07.211Z,61.20
2019-01-09T02:43:03.522Z,61.30
2019-01-09T02:46:00.198Z,61.60
2019-01-09T02:48:56.761Z,61.70
2019-01-09T02:51:53.240Z,61.70
2019-01-09T02:54:49.762Z,61.60
2019-01-09T02:57:56.282Z,61.60
2019-01-09T03:00:43.582Z,61.60
2019-01-09T03:03:40.431Z,61.90
2019-01-09T03:06:36.766Z,61.90
2019-01-09T03:09:33.124Z,61.90
2019-01-09T03:12:30.374Z,62.10
2019-01-09T03:15:27.140Z,61.30
2019-01-09T03:18:24.054Z,62.10
2019-01-09T03:21:22.382Z,62.20
2019-01-09T03:24:18.938Z,62.20
2019-01-09T03:27:15.307Z,62.10
2019-01-09T03:30:11.713Z,62.00
2019-01-09T03:33:08.288Z,62.00
2019-01-09T03:36:05.232Z,62.00
2019-01-09T03:39:01.160Z,61.90
2019-01-09T03:42:01.228Z,61.90
2019-01-09T03:44:58.442Z,61.90
2019-01-09T03:48:03.691Z,62.00
2019-01-09T03:50:59.503Z,61.80
2019-01-09T03:53:56.451Z,61.70
2019-01-09T03:56:52.870Z,61.60
2019-01-09T03:59:49.091Z,61.30
2019-01-09T04:02:48.420Z,61.00
2019-01-09T04:05:45.257Z,60.70
2019-01-09T04:08:42.009Z,60.50
2019-01-09T04:11:39.569Z,60.10
2019-01-09T04:14:40.711Z,59.80
2019-01-09T04:17:37.454Z,59.80
2019-01-09T04:20:34.208Z,59.60
2019-01-09T04:23:30.948Z,59.50
2019-01-09T04:26:27.385Z,59.40
2019-01-09T04:29:23.815Z,59.20
2019-01-09T04:32:20.785Z,59.10
2019-01-09T04:35:17.813Z,59.10
2019-01-09T04:38:14.055Z,59.20
2019-01-09T04:41:13.350Z,58.90
2019-01-09T04:44:12.968Z,58.70
2019-01-09T04:47:09.206Z,58.50
2019-01-09T04:50:05.944Z,58.20
2019-01-09T04:53:07.832Z,57.90
2019-01-09T04:56:04.135Z,57.70
2019-01-09T04:59:00.579Z,57.40
2019-01-09T05:01:56.915Z,56.40
2019-01-09T05:04:56.009Z,57.30
2019-01-09T05:07:56.251Z,56.70
2019-01-09T05:10:53.286Z,56.40
2019-01-09T05:13:58.334Z,56.10
2019-01-09T05:16:59.249Z,56.20
2019-01-09T05:20:16.470Z,55.80
2019-01-09T05:27:00.880Z,55.10
2019-01-09T05:29:58.793Z,55.00
2019-01-09T05:33:06.557Z,54.80
2019-01-09T05:36:10.078Z,54.50
2019-01-09T05:42:45.043Z,53.60
2019-01-09T05:45:48.374Z,53.00
2019-01-09T05:48:47.663Z,52.70
2019-01-09T05:51:47.269Z,52.30
2019-01-09T05:54:45.536Z,51.50
2019-01-09T05:58:03.833Z,51.30
2019-01-09T06:01:12.457Z,51.20
2019-01-09T06:04:14.575Z,51.20
2019-01-09T06:07:18.346Z,51.30
2019-01-09T06:10:15.499Z,51.30
2019-01-09T06:17:51.918Z,50.40
2019-01-09T06:21:46.996Z,49.90
2019-01-09T06:35:11.246Z,49.60
2019-01-09T06:47:11.637Z,49.00
2019-01-09T06:49:50.089Z,49.00
2019-01-09T06:53:00.915Z,48.70
2019-01-09T06:55:59.325Z,48.70
2019-01-09T06:58:55.867Z,48.40
2019-01-09T07:01:55.886Z,48.30
2019-01-09T07:04:59.517Z,47.70
2019-01-09T07:08:02.700Z,47.40
2019-01-09T07:22:42.899Z,46.50
2019-01-09T07:26:20.404Z,46.10
2019-01-09T07:30:06.847Z,45.60
2019-01-09T07:33:10.641Z,45.30
2019-01-09T07:36:10.495Z,45.10
2019-01-09T07:39:09.327Z,44.90
2019-01-09T07:46:07.922Z,43.80
2019-01-09T07:52:38.566Z,43.20
2019-01-09T07:56:03.687Z,43.00
2019-01-09T07:59:42.029Z,42.70
2019-01-09T08:09:59.512Z,43.10
2019-01-09T08:26:02.672Z,43.30
2019-01-09T08:49:07.200Z,42.50
2019-01-09T08:55:55.074Z,40.20
2019-01-09T08:58:58.380Z,40.30
2019-01-09T09:01:55.376Z,40.40
2019-01-09T09:04:57.795Z,40.60
2019-01-09T09:07:59.663Z,40.80
2019-01-09T09:11:15.455Z,40.80
2019-01-09T09:14:31.790Z,40.80
2019-01-09T09:17:31.999Z,41.00
2019-01-09T09:20:29.243Z,41.30
2019-01-09T09:23:28.539Z,41.50
2019-01-09T09:26:28.158Z,40.90
2019-01-09T09:29:27.709Z,40.90
2019-01-09T09:32:29.932Z,40.80
2019-01-09T09:35:35.874Z,40.70
2019-01-09T09:38:36.337Z,40.70
2019-01-09T09:41:33.139Z,40.60
2019-01-09T09:44:31.527Z,40.60
2019-01-09T09:47:31.256Z,40.50
2019-01-09T09:50:39.710Z,40.40
2019-01-09T09:53:41.231Z,40.20
2019-01-09T09:56:52.863Z,40.20
2019-01-09T09:59:52.315Z,40.00
2019-01-09T10:03:05.778Z,39.90
2019-01-09T10:05:52.458Z,39.90
2019-01-09T10:08:54.313Z,39.80
2019-01-09T10:12:00.617Z,39.80
2019-01-09T10:15:04.315Z,39.80
2019-01-09T10:18:04.906Z,39.80
2019-01-09T10:21:41.836Z,39.80
2019-01-09T10:24:53.188Z,40.00
2019-01-09T10:28:00.187Z,40.10
2019-01-09T10:31:19.783Z,40.20
2019-01-09T10:34:44.904Z,40.20
2019-01-09T10:37:48.690Z,40.30
2019-01-09T11:28:50.549Z,40.40
2019-01-09T11:31:49.627Z,36.30
2019-01-09T11:34:45.641Z,36.70
2019-01-09T11:37:42.101Z,37.20
2019-01-09T11:40:38.462Z,37.40
2019-01-09T11:43:35.765Z,37.80
2019-01-09T11:46:37.501Z,38.20
2019-01-09T11:49:34.092Z,38.50
2019-01-09T11:52:37.656Z,39.20
2019-01-09T11:55:44.833Z,39.80
2019-01-09T11:58:45.424Z,40.10
2019-01-09T12:01:41.650Z,40.40
2019-01-09T12:04:53.365Z,40.70
2019-01-09T12:07:50.322Z,40.80
2019-01-09T12:10:46.541Z,40.70
2019-01-09T12:13:55.152Z,40.80
2019-01-09T12:16:49.636Z,41.20
2019-01-09T12:19:47.088Z,41.60
2019-01-09T12:23:16.425Z,41.80
2019-01-09T12:26:21.344Z,42.00
2019-01-09T12:29:18.391Z,42.40
2019-01-09T12:32:19.203Z,42.70
2019-01-09T12:35:18.635Z,43.10
2019-01-09T12:38:16.315Z,43.00
2019-01-09T12:41:12.437Z,43.20
2019-01-09T12:44:09.167Z,43.60
2019-01-09T12:47:11.164Z,44.00
2019-01-09T12:50:11.488Z,44.20
2019-01-09T12:53:08.813Z,44.30
2019-01-09T12:56:05.202Z,44.30
2019-01-09T12:59:01.776Z,44.30
2019-01-09T13:01:58.262Z,44.00
2019-01-09T13:04:54.561Z,43.90
2019-01-09T13:07:51.416Z,44.00
2019-01-09T13:10:48.063Z,44.20
2019-01-09T13:13:47.614Z,44.40
2019-01-09T13:16:55.555Z,44.50
2019-01-09T13:19:46.013Z,44.80
2019-01-09T13:22:43.221Z,45.00
2019-01-09T13:25:40.508Z,45.10
2019-01-09T13:28:48.916Z,45.20
2019-01-09T13:31:59.495Z,45.20
2019-01-09T13:34:59.084Z,45.00
2019-01-09T13:37:56.031Z,45.00
2019-01-09T13:40:52.680Z,45.20
2019-01-09T13:43:52.274Z,45.20
2019-01-09T13:46:49.840Z,45.30
2019-01-09T13:49:46.900Z,45.50
2019-01-09T13:52:44.172Z,45.60
2019-01-09T13:55:40.886Z,45.80
2019-01-09T13:58:37.526Z,46.10
2019-01-09T14:01:34.308Z,46.40
2019-01-09T14:04:34.841Z,46.60
2019-01-09T14:07:31.958Z,46.60
2019-01-09T14:10:30.977Z,46.80
2019-01-09T14:13:27.793Z,46.70
2019-01-09T14:16:24.156Z,46.50
2019-01-09T14:19:20.675Z,46.50
2019-01-09T14:22:20.385Z,46.60
2019-01-09T14:25:23.176Z,46.70
2019-01-09T14:28:19.799Z,46.90
2019-01-09T14:31:16.250Z,47.00
2019-01-09T14:34:12.218Z,47.10
2019-01-09T14:37:07.970Z,47.10
2019-01-09T14:40:04.126Z,47.20
2019-01-09T14:43:00.461Z,47.50
2019-01-09T14:45:56.692Z,47.70
2019-01-09T14:48:52.698Z,47.90
2019-01-09T14:51:49.139Z,48.00
2019-01-09T14:54:45.103Z,48.00
2019-01-09T14:57:41.192Z,48.10
2019-01-09T15:00:37.951Z,48.30
2019-01-09T15:03:34.711Z,48.40
2019-01-09T15:06:30.619Z,48.40
2019-01-09T15:09:26.430Z,48.40
2019-01-09T15:12:23.186Z,48.40
2019-01-09T15:15:22.472Z,48.50
2019-01-09T15:18:18.519Z,48.50
2019-01-09T15:21:14.637Z,48.60
2019-01-09T15:24:10.883Z,48.70
2019-01-09T15:27:07.626Z,48.70
2019-01-09T15:30:03.957Z,48.60
2019-01-09T15:33:00.708Z,48.60
2019-01-09T15:35:57.438Z,48.80
2019-01-09T15:38:53.527Z,49.20
2019-01-09T15:41:52.671Z,49.50
2019-01-09T15:44:48.799Z,49.50
2019-01-09T15:47:44.927Z,49.60
2019-01-09T15:50:52.738Z,49.70
2019-01-09T15:53:49.067Z,50.00
2019-01-09T15:56:49.084Z,50.10
2019-01-09T15:59:45.836Z,50.10
2019-01-09T16:02:41.838Z,50.30
2019-01-09T16:05:38.294Z,51.00
2019-01-09T16:08:37.607Z,50.80
2019-01-09T16:11:34.157Z,50.90
2019-01-09T16:14:30.884Z,51.00
2019-01-09T16:17:27.005Z,51.10
2019-01-09T16:20:24.104Z,51.20
2019-01-09T16:23:20.399Z,51.40
2019-01-09T16:26:17.223Z,51.70
2019-01-09T16:29:13.995Z,52.00
2019-01-09T16:32:11.239Z,52.20
2019-01-09T16:35:08.783Z,52.50
2019-01-09T16:38:05.033Z,52.70
2019-01-09T16:41:01.012Z,53.00
2019-01-09T16:43:56.752Z,53.20
2019-01-09T16:46:53.110Z,53.30
2019-01-09T16:49:49.351Z,53.50
2019-01-09T16:52:45.305Z,53.70
2019-01-09T16:55:50.751Z,53.90
2019-01-09T16:58:46.544Z,54.00
2019-01-09T17:01:42.926Z,53.60
2019-01-09T17:04:42.933Z,54.30
2019-01-09T17:07:38.898Z,54.40
2019-01-09T17:10:35.976Z,54.50
2019-01-09T17:13:36.451Z,54.80
2019-01-09T17:16:29.130Z,55.00
2019-01-09T17:19:25.698Z,55.10
2019-01-09T17:22:21.720Z,55.30
2019-01-09T17:25:18.670Z,55.30
2019-01-09T17:28:15.410Z,55.40
2019-01-09T17:31:12.055Z,55.70
2019-01-09T17:34:12.354Z,55.70
2019-01-09T17:37:05.232Z,55.70
2019-01-09T17:40:01.972Z,55.80
2019-01-09T17:42:58.329Z,55.70
2019-01-09T17:45:54.041Z,55.80
2019-01-09T17:48:50.270Z,55.80
2019-01-09T17:51:48.728Z,55.80
2019-01-09T17:54:44.671Z,55.70
2019-01-09T17:57:43.358Z,55.70
2019-01-09T18:00:41.843Z,55.80
2019-01-09T18:03:37.739Z,55.80
2019-01-09T18:06:34.502Z,55.90
2019-01-09T18:09:30.638Z,55.80
2019-01-09T18:12:37.557Z,55.90
2019-01-09T18:15:34.162Z,56.00
2019-01-09T18:18:30.699Z,56.00
2019-01-09T18:21:28.162Z,56.00
2019-01-09T18:24:24.904Z,56.00
2019-01-09T18:27:21.648Z,56.20
2019-01-09T18:30:33.430Z,56.40
2019-01-09T18:34:01.896Z,56.50
2019-01-09T18:37:24.283Z,56.50
2019-01-09T18:40:59.433Z,56.50
2019-01-09T18:44:19.106Z,56.40
2019-01-09T18:48:12.461Z,56.50
2019-01-09T18:51:34.688Z,56.60
2019-01-09T18:54:31.474Z,56.60
2019-01-09T18:57:31.072Z,56.70
2019-01-09T19:00:26.898Z,56.70
2019-01-09T19:03:23.228Z,56.80
2019-01-09T19:06:20.592Z,56.90
2019-01-09T19:09:17.534Z,56.90
2019-01-09T19:12:14.069Z,57.00
2019-01-09T19:15:11.018Z,57.10
2019-01-09T19:18:07.762Z,57.20
2019-01-09T19:21:05.119Z,57.20
2019-01-09T19:24:04.726Z,57.20
2019-01-09T19:27:00.966Z,57.20
2019-01-09T19:30:01.295Z,57.10
2019-01-09T19:32:57.516Z,57.10
2019-01-09T19:35:54.047Z,57.10
2019-01-09T19:38:50.599Z,57.10
2019-01-09T19:41:50.729Z,57.20
2019-01-09T19:44:43.477Z,57.20
2019-01-09T19:47:40.014Z,57.30
2019-01-09T19:50:42.476Z,57.20
2019-01-09T19:53:37.890Z,57.20
2019-01-09T19:56:34.141Z,57.80
2019-01-09T19:59:30.255Z,57.40
2019-01-09T20:02:35.201Z,57.30
2019-01-09T20:05:31.123Z,57.30
2019-01-09T20:08:27.482Z,57.40
2019-01-09T20:11:26.557Z,57.50
2019-01-09T20:14:23.012Z,57.40
2019-01-09T20:17:19.527Z,57.50
2019-01-09T20:20:18.247Z,57.30
2019-01-09T20:23:21.341Z,57.30
2019-01-09T20:26:14.725Z,57.40
2019-01-09T20:29:11.517Z,57.50
2019-01-09T20:32:08.474Z,57.70
2019-01-09T20:35:05.327Z,57.70
2019-01-09T20:38:01.957Z,57.70
2019-01-09T20:40:58.397Z,57.70
2019-01-09T20:43:54.750Z,57.60
2019-01-09T20:46:56.664Z,57.60
2019-01-09T20:49:53.139Z,57.60
2019-01-09T20:52:52.568Z,57.50
2019-01-09T20:55:52.054Z,57.40
2019-01-09T20:58:48.349Z,57.30
2019-01-09T21:01:47.173Z,57.30
2019-01-09T21:04:46.797Z,57.30
2019-01-09T21:07:39.651Z,57.20
2019-01-09T21:10:36.587Z,57.20
2019-01-09T21:13:32.277Z,57.10
2019-01-09T21:16:28.332Z,57.10
2019-01-09T21:19:26.687Z,57.10
2019-01-09T21:22:23.139Z,57.10
2019-01-09T21:25:19.879Z,57.00
2019-01-09T21:28:16.333Z,56.90
2019-01-09T21:31:12.977Z,56.90
2019-01-09T21:34:09.621Z,56.90
2019-01-09T21:37:05.864Z,56.90
2019-01-09T21:40:02.285Z,56.60
2019-01-09T21:43:01.488Z,56.90
2019-01-09T21:45:57.927Z,56.90
2019-01-09T21:48:57.757Z,56.80
2019-01-09T21:51:51.098Z,56.90
2019-01-09T21:54:47.220Z,56.90
2019-01-09T21:57:43.459Z,57.00
2019-01-09T22:00:40.295Z,57.10
2019-01-09T22:03:36.538Z,57.20
2019-01-09T22:06:32.874Z,57.30
2019-01-09T22:09:29.195Z,57.40
2019-01-09T22:12:25.787Z,57.30
2019-01-09T22:15:24.437Z,57.40
2019-01-09T22:18:23.224Z,57.60
2019-01-09T22:21:19.447Z,57.70
2019-01-09T22:24:15.482Z,57.80
2019-01-09T22:27:11.410Z,57.80
2019-01-09T22:30:08.145Z,57.90
2019-01-09T22:33:04.487Z,58.00
2019-01-09T22:36:00.616Z,58.00
2019-01-09T22:38:56.436Z,57.90
2019-01-09T22:41:52.667Z,57.90
2019-01-09T22:44:50.655Z,58.00
2019-01-09T22:47:46.960Z,58.00
2019-01-09T22:50:43.407Z,58.20
2019-01-09T22:53:40.976Z,58.30
2019-01-09T22:56:37.822Z,58.40
2019-01-09T22:59:34.260Z,58.50
2019-01-09T23:02:34.884Z,58.50
2019-01-09T23:05:31.334Z,58.60
2019-01-09T23:08:30.836Z,58.60
2019-01-09T23:11:27.069Z,58.60
2019-01-09T23:14:23.463Z,58.60
2019-01-09T23:17:19.839Z,58.60
2019-01-09T23:20:20.477Z,58.70
2019-01-09T23:23:16.442Z,58.70
2019-01-09T23:26:13.154Z,58.70
2019-01-09T23:29:09.281Z,58.70
2019-01-09T23:32:05.793Z,58.70
2019-01-09T23:35:01.836Z,58.60
2019-01-09T23:37:58.379Z,58.60
2019-01-09T23:40:54.713Z,58.60
2019-01-09T23:43:51.044Z,58.70
2019-01-09T23:46:46.867Z,58.80
2019-01-09T23:49:42.799Z,58.90
2019-01-09T23:52:39.946Z,59.00
2019-01-09T23:55:36.176Z,58.90
2019-01-09T23:58:35.164Z,58.90
